Pagrindinis puslapis
METAR-TAF:

METAR-TAF

Oro uostai :

Mountain Village, Aliaska, Jungtinės Amerikos Valstijos

platuma: 62-05-43N, ilguma: 163-40-55W, Aukštis: 103 m

Dabartinis oras

Ataskaita buvo paskelbta 47 minutes, ne 23:02 UTC
Vėjas 9 kt iš Pietų
Temperatūra 8°C
Drėgmė 76%
Slėgis 1018 hPa
Matomumas: 16.1 km
Apsiniaukę ne aukštis 2800 ft

METAR: PAMO 052302Z AUTO 17009KT 10SM OVC028 08/04 A3005 RMK AO2 SLP181 T00830039

Laikas: 15:49 (23:49 UTC)


TAF: trūkstamas

Orai ataskaitas ir orų prognozės (METAR, TAF).

turimą stotys yra geltonos ir raudonos taškus žemėlapyje.

Perkelti pele per norėdami pamatyti stoties vardą.

Tada spustelėkite, norėdami matyti oro stebėjimo ir prognozės.

Norėdami pakeisti žemėlapį: spustelėkite ant žalios mygtukų su juodo kryžiaus žemyn,; žalią mygtuką su brūkšneliu, jei norite nutolinti; arba žalių rodyklių gretimoms žemėlapius.


METAR-TAF: